sensor_id;sensor_type;location;lat;lon;timestamp;P1;durP1;ratioP1;P2;durP2;ratioP2
31531;SDS011;23787;52.180;5.288;2022-12-04T00:00:11;3.70;;;3.40;;
31531;SDS011;23787;52.180;5.288;2022-12-04T00:05:09;3.70;;;3.40;;
31531;SDS011;23787;52.180;5.288;2022-12-04T00:10:08;3.70;;;3.40;;
31531;SDS011;23787;52.180;5.288;2022-12-04T00:15:09;4.30;;;3.90;;
31531;SDS011;23787;52.180;5.288;2022-12-04T00:20:08;4.30;;;3.90;;
31531;SDS011;23787;52.180;5.288;2022-12-04T00:25:08;4.30;;;3.90;;
31531;SDS011;23787;52.180;5.288;2022-12-04T00:30:08;3.40;;;3.10;;
31531;SDS011;23787;52.180;5.288;2022-12-04T00:40:08;3.40;;;3.10;;
31531;SDS011;23787;52.180;5.288;2022-12-04T00:45:08;3.70;;;3.40;;
31531;SDS011;23787;52.180;5.288;2022-12-04T00:50:08;3.70;;;3.40;;
31531;SDS011;23787;52.180;5.288;2022-12-04T00:55:08;3.70;;;3.40;;
31531;SDS011;23787;52.180;5.288;2022-12-04T01:00:08;3.30;;;3.00;;
31531;SDS011;23787;52.180;5.288;2022-12-04T01:05:08;3.30;;;3.00;;
31531;SDS011;23787;52.180;5.288;2022-12-04T01:10:11;3.30;;;3.00;;
31531;SDS011;23787;52.180;5.288;2022-12-04T01:15:09;4.40;;;4.00;;
31531;SDS011;23787;52.180;5.288;2022-12-04T01:20:10;4.40;;;4.00;;
31531;SDS011;23787;52.180;5.288;2022-12-04T01:25:08;4.40;;;4.00;;
31531;SDS011;23787;52.180;5.288;2022-12-04T01:30:09;3.00;;;2.80;;
31531;SDS011;23787;52.180;5.288;2022-12-04T01:35:08;3.00;;;2.80;;
31531;SDS011;23787;52.180;5.288;2022-12-04T01:40:12;3.70;;;3.40;;
31531;SDS011;23787;52.180;5.288;2022-12-04T01:50:08;3.70;;;3.40;;
31531;SDS011;23787;52.180;5.288;2022-12-04T01:55:08;3.50;;;3.20;;
31531;SDS011;23787;52.180;5.288;2022-12-04T02:05:10;3.50;;;3.20;;
31531;SDS011;23787;52.180;5.288;2022-12-04T02:10:09;4.00;;;3.50;;
31531;SDS011;23787;52.180;5.288;2022-12-04T02:15:14;4.00;;;3.50;;
31531;SDS011;23787;52.180;5.288;2022-12-04T02:20:17;4.00;;;3.50;;
31531;SDS011;23787;52.180;5.288;2022-12-04T02:25:16;3.70;;;3.40;;
31531;SDS011;23787;52.180;5.288;2022-12-04T02:30:11;3.70;;;3.40;;
31531;SDS011;23787;52.180;5.288;2022-12-04T02:35:13;3.70;;;3.40;;
31531;SDS011;23787;52.180;5.288;2022-12-04T02:40:12;5.80;;;4.20;;
31531;SDS011;23787;52.180;5.288;2022-12-04T02:50:12;5.80;;;4.20;;
31531;SDS011;23787;52.180;5.288;2022-12-04T02:55:11;3.50;;;3.20;;
31531;SDS011;23787;52.180;5.288;2022-12-04T03:00:09;3.50;;;3.20;;
31531;SDS011;23787;52.180;5.288;2022-12-04T03:05:12;3.50;;;3.20;;
31531;SDS011;23787;52.180;5.288;2022-12-04T03:10:12;7.60;;;3.60;;
31531;SDS011;23787;52.180;5.288;2022-12-04T03:15:13;7.60;;;3.60;;
31531;SDS011;23787;52.180;5.288;2022-12-04T03:20:11;7.60;;;3.60;;
31531;SDS011;23787;52.180;5.288;2022-12-04T03:30:11;2.90;;;2.70;;
31531;SDS011;23787;52.180;5.288;2022-12-04T03:35:14;2.90;;;2.70;;
31531;SDS011;23787;52.180;5.288;2022-12-04T03:40:14;10.60;;;5.20;;
31531;SDS011;23787;52.180;5.288;2022-12-04T03:45:12;10.60;;;5.20;;
31531;SDS011;23787;52.180;5.288;2022-12-04T03:50:13;10.60;;;5.20;;
31531;SDS011;23787;52.180;5.288;2022-12-04T04:00:11;5.60;;;3.50;;
31531;SDS011;23787;52.180;5.288;2022-12-04T04:05:10;5.60;;;3.50;;
31531;SDS011;23787;52.180;5.288;2022-12-04T04:10:13;4.30;;;3.90;;
31531;SDS011;23787;52.180;5.288;2022-12-04T04:15:11;4.30;;;3.90;;
31531;SDS011;23787;52.180;5.288;2022-12-04T04:20:13;4.30;;;3.90;;
31531;SDS011;23787;52.180;5.288;2022-12-04T04:25:10;3.10;;;2.90;;
31531;SDS011;23787;52.180;5.288;2022-12-04T04:35:16;3.10;;;2.90;;
31531;SDS011;23787;52.180;5.288;2022-12-04T04:45:12;3.20;;;2.90;;
31531;SDS011;23787;52.180;5.288;2022-12-04T04:50:10;3.20;;;2.90;;
31531;SDS011;23787;52.180;5.288;2022-12-04T04:55:08;3.10;;;2.90;;
31531;SDS011;23787;52.180;5.288;2022-12-04T05:00:12;3.10;;;2.90;;
31531;SDS011;23787;52.180;5.288;2022-12-04T05:05:12;3.10;;;2.90;;
31531;SDS011;23787;52.180;5.288;2022-12-04T05:10:09;3.20;;;2.90;;
31531;SDS011;23787;52.180;5.288;2022-12-04T05:15:09;3.20;;;2.90;;
31531;SDS011;23787;52.180;5.288;2022-12-04T05:20:09;3.20;;;2.90;;
31531;SDS011;23787;52.180;5.288;2022-12-04T05:25:09;3.70;;;3.40;;
31531;SDS011;23787;52.180;5.288;2022-12-04T05:30:09;3.70;;;3.40;;
31531;SDS011;23787;52.180;5.288;2022-12-04T05:35:08;3.70;;;3.40;;
31531;SDS011;23787;52.180;5.288;2022-12-04T05:40:08;3.10;;;2.80;;
31531;SDS011;23787;52.180;5.288;2022-12-04T05:45:08;3.10;;;2.80;;
31531;SDS011;23787;52.180;5.288;2022-12-04T05:50:10;3.10;;;2.80;;
31531;SDS011;23787;52.180;5.288;2022-12-04T05:55:08;3.30;;;3.00;;
31531;SDS011;23787;52.180;5.288;2022-12-04T06:00:08;3.30;;;3.00;;
31531;SDS011;23787;52.180;5.288;2022-12-04T06:05:08;3.30;;;3.00;;
31531;SDS011;23787;52.180;5.288;2022-12-04T06:10:08;3.80;;;3.50;;
31531;SDS011;23787;52.180;5.288;2022-12-04T06:15:08;3.80;;;3.50;;
31531;SDS011;23787;52.180;5.288;2022-12-04T06:20:09;3.80;;;3.50;;
31531;SDS011;23787;52.180;5.288;2022-12-04T06:25:08;4.80;;;3.00;;
31531;SDS011;23787;52.180;5.288;2022-12-04T06:30:08;4.80;;;3.00;;
31531;SDS011;23787;52.180;5.288;2022-12-04T06:35:08;4.80;;;3.00;;
31531;SDS011;23787;52.180;5.288;2022-12-04T06:45:09;3.80;;;3.50;;
31531;SDS011;23787;52.180;5.288;2022-12-04T06:50:08;3.80;;;3.50;;
31531;SDS011;23787;52.180;5.288;2022-12-04T06:55:08;3.80;;;3.50;;
31531;SDS011;23787;52.180;5.288;2022-12-04T07:00:08;3.80;;;3.50;;
31531;SDS011;23787;52.180;5.288;2022-12-04T07:05:08;3.80;;;3.50;;
31531;SDS011;23787;52.180;5.288;2022-12-04T07:10:08;3.60;;;3.30;;
31531;SDS011;23787;52.180;5.288;2022-12-04T07:15:09;3.60;;;3.30;;
31531;SDS011;23787;52.180;5.288;2022-12-04T07:20:08;3.60;;;3.30;;
31531;SDS011;23787;52.180;5.288;2022-12-04T07:25:08;4.00;;;3.40;;
31531;SDS011;23787;52.180;5.288;2022-12-04T07:35:08;4.00;;;3.40;;
31531;SDS011;23787;52.180;5.288;2022-12-04T07:40:08;3.60;;;3.30;;
31531;SDS011;23787;52.180;5.288;2022-12-04T08:00:09;2.80;;;2.60;;
31531;SDS011;23787;52.180;5.288;2022-12-04T08:05:08;2.80;;;2.60;;
31531;SDS011;23787;52.180;5.288;2022-12-04T08:15:08;3.70;;;3.40;;
31531;SDS011;23787;52.180;5.288;2022-12-04T08:20:08;3.70;;;3.40;;
31531;SDS011;23787;52.180;5.288;2022-12-04T08:25:08;3.90;;;3.60;;
31531;SDS011;23787;52.180;5.288;2022-12-04T08:35:08;3.90;;;3.60;;
31531;SDS011;23787;52.180;5.288;2022-12-04T08:40:08;3.80;;;3.40;;
31531;SDS011;23787;52.180;5.288;2022-12-04T08:45:09;3.80;;;3.40;;
31531;SDS011;23787;52.180;5.288;2022-12-04T08:50:08;3.80;;;3.40;;
31531;SDS011;23787;52.180;5.288;2022-12-04T08:55:08;3.40;;;3.10;;
31531;SDS011;23787;52.180;5.288;2022-12-04T09:00:09;3.40;;;3.10;;
31531;SDS011;23787;52.180;5.288;2022-12-04T09:05:08;3.40;;;3.10;;
31531;SDS011;23787;52.180;5.288;2022-12-04T09:10:09;3.30;;;3.00;;
31531;SDS011;23787;52.180;5.288;2022-12-04T09:15:09;3.30;;;3.00;;
31531;SDS011;23787;52.180;5.288;2022-12-04T09:20:08;3.30;;;3.00;;
31531;SDS011;23787;52.180;5.288;2022-12-04T09:25:08;3.30;;;3.00;;
31531;SDS011;23787;52.180;5.288;2022-12-04T09:30:10;3.30;;;3.00;;
31531;SDS011;23787;52.180;5.288;2022-12-04T09:35:08;3.30;;;3.00;;
31531;SDS011;23787;52.180;5.288;2022-12-04T09:40:19;3.10;;;2.80;;
31531;SDS011;23787;52.180;5.288;2022-12-04T09:45:11;3.10;;;2.80;;
31531;SDS011;23787;52.180;5.288;2022-12-04T09:50:14;3.10;;;2.80;;
31531;SDS011;23787;52.180;5.288;2022-12-04T09:55:13;3.80;;;3.50;;
31531;SDS011;23787;52.180;5.288;2022-12-04T10:00:12;3.80;;;3.50;;
31531;SDS011;23787;52.180;5.288;2022-12-04T10:05:16;3.80;;;3.50;;
31531;SDS011;23787;52.180;5.288;2022-12-04T10:15:20;4.50;;;4.10;;
31531;SDS011;23787;52.180;5.288;2022-12-04T10:25:12;4.50;;;4.10;;
31531;SDS011;23787;52.180;5.288;2022-12-04T10:35:20;4.50;;;4.10;;
31531;SDS011;23787;52.180;5.288;2022-12-04T10:40:13;5.60;;;5.00;;
31531;SDS011;23787;52.180;5.288;2022-12-04T10:45:11;5.60;;;5.00;;
31531;SDS011;23787;52.180;5.288;2022-12-04T10:55:09;3.80;;;3.50;;
31531;SDS011;23787;52.180;5.288;2022-12-04T11:00:22;3.80;;;3.50;;
31531;SDS011;23787;52.180;5.288;2022-12-04T11:05:22;3.80;;;3.50;;
31531;SDS011;23787;52.180;5.288;2022-12-04T11:10:20;5.20;;;4.70;;
31531;SDS011;23787;52.180;5.288;2022-12-04T11:15:14;5.20;;;4.70;;
31531;SDS011;23787;52.180;5.288;2022-12-04T11:20:15;5.20;;;4.70;;
31531;SDS011;23787;52.180;5.288;2022-12-04T11:25:14;3.70;;;3.40;;
31531;SDS011;23787;52.180;5.288;2022-12-04T11:30:14;3.70;;;3.40;;
31531;SDS011;23787;52.180;5.288;2022-12-04T11:35:12;3.70;;;3.40;;
31531;SDS011;23787;52.180;5.288;2022-12-04T11:40:16;5.70;;;5.10;;
31531;SDS011;23787;52.180;5.288;2022-12-04T11:45:18;5.70;;;5.10;;
31531;SDS011;23787;52.180;5.288;2022-12-04T11:55:14;4.50;;;4.10;;
31531;SDS011;23787;52.180;5.288;2022-12-04T12:05:19;4.50;;;4.10;;
31531;SDS011;23787;52.180;5.288;2022-12-04T12:10:13;4.00;;;3.70;;
31531;SDS011;23787;52.180;5.288;2022-12-04T12:15:15;4.00;;;3.70;;
31531;SDS011;23787;52.180;5.288;2022-12-04T12:20:13;4.00;;;3.70;;
31531;SDS011;23787;52.180;5.288;2022-12-04T12:30:14;4.90;;;4.50;;
31531;SDS011;23787;52.180;5.288;2022-12-04T12:35:18;4.90;;;4.50;;
31531;SDS011;23787;52.180;5.288;2022-12-04T12:45:20;3.70;;;3.40;;
31531;SDS011;23787;52.180;5.288;2022-12-04T12:50:13;3.70;;;3.40;;
31531;SDS011;23787;52.180;5.288;2022-12-04T12:55:15;4.00;;;3.70;;
31531;SDS011;23787;52.180;5.288;2022-12-04T13:00:14;4.00;;;3.70;;
31531;SDS011;23787;52.180;5.288;2022-12-04T13:15:13;4.60;;;4.20;;
31531;SDS011;23787;52.180;5.288;2022-12-04T13:20:15;4.60;;;4.20;;
31531;SDS011;23787;52.180;5.288;2022-12-04T13:30:12;4.20;;;3.90;;
31531;SDS011;23787;52.180;5.288;2022-12-04T13:40:27;5.90;;;4.90;;
31531;SDS011;23787;52.180;5.288;2022-12-04T13:50:27;5.90;;;4.90;;
31531;SDS011;23787;52.180;5.288;2022-12-04T13:55:22;4.70;;;4.30;;
31531;SDS011;23787;52.180;5.288;2022-12-04T14:00:24;4.70;;;4.30;;
31531;SDS011;23787;52.180;5.288;2022-12-04T14:15:19;5.00;;;4.60;;
31531;SDS011;23787;52.180;5.288;2022-12-04T14:20:20;5.00;;;4.60;;
31531;SDS011;23787;52.180;5.288;2022-12-04T14:25:23;4.30;;;3.90;;
31531;SDS011;23787;52.180;5.288;2022-12-04T14:30:16;4.30;;;3.90;;
31531;SDS011;23787;52.180;5.288;2022-12-04T14:40:16;4.00;;;3.70;;
31531;SDS011;23787;52.180;5.288;2022-12-04T14:55:18;3.90;;;3.60;;
31531;SDS011;23787;52.180;5.288;2022-12-04T15:00:13;3.90;;;3.60;;
31531;SDS011;23787;52.180;5.288;2022-12-04T15:15:15;4.40;;;4.00;;
31531;SDS011;23787;52.180;5.288;2022-12-04T15:20:13;4.40;;;4.00;;
31531;SDS011;23787;52.180;5.288;2022-12-04T15:30:14;3.80;;;3.50;;
31531;SDS011;23787;52.180;5.288;2022-12-04T15:35:14;3.80;;;3.50;;
31531;SDS011;23787;52.180;5.288;2022-12-04T15:40:18;3.90;;;3.60;;
31531;SDS011;23787;52.180;5.288;2022-12-04T15:45:23;3.90;;;3.60;;
31531;SDS011;23787;52.180;5.288;2022-12-04T15:50:15;3.90;;;3.60;;
31531;SDS011;23787;52.180;5.288;2022-12-04T15:55:15;4.60;;;4.20;;
31531;SDS011;23787;52.180;5.288;2022-12-04T16:00:22;4.60;;;4.20;;
31531;SDS011;23787;52.180;5.288;2022-12-04T16:05:11;4.60;;;4.20;;
31531;SDS011;23787;52.180;5.288;2022-12-04T16:10:19;6.70;;;5.00;;
31531;SDS011;23787;52.180;5.288;2022-12-04T16:15:08;6.70;;;5.00;;
31531;SDS011;23787;52.180;5.288;2022-12-04T16:20:09;6.70;;;5.00;;
31531;SDS011;23787;52.180;5.288;2022-12-04T16:25:10;4.50;;;4.10;;
31531;SDS011;23787;52.180;5.288;2022-12-04T16:30:08;4.50;;;4.10;;
31531;SDS011;23787;52.180;5.288;2022-12-04T16:35:12;4.50;;;4.10;;
31531;SDS011;23787;52.180;5.288;2022-12-04T16:40:10;4.60;;;4.20;;
31531;SDS011;23787;52.180;5.288;2022-12-04T16:45:18;4.60;;;4.20;;
31531;SDS011;23787;52.180;5.288;2022-12-04T16:55:14;3.80;;;3.50;;
31531;SDS011;23787;52.180;5.288;2022-12-04T17:00:11;3.80;;;3.50;;
31531;SDS011;23787;52.180;5.288;2022-12-04T17:05:15;3.80;;;3.50;;
31531;SDS011;23787;52.180;5.288;2022-12-04T17:10:09;4.60;;;4.10;;
31531;SDS011;23787;52.180;5.288;2022-12-04T17:15:09;4.60;;;4.10;;
31531;SDS011;23787;52.180;5.288;2022-12-04T17:20:11;4.60;;;4.10;;
31531;SDS011;23787;52.180;5.288;2022-12-04T17:25:09;4.00;;;3.70;;
31531;SDS011;23787;52.180;5.288;2022-12-04T17:30:10;4.00;;;3.70;;
31531;SDS011;23787;52.180;5.288;2022-12-04T17:35:10;3.50;;;3.20;;
31531;SDS011;23787;52.180;5.288;2022-12-04T17:40:10;3.50;;;3.20;;
31531;SDS011;23787;52.180;5.288;2022-12-04T17:45:09;3.50;;;3.20;;
31531;SDS011;23787;52.180;5.288;2022-12-04T17:50:09;4.40;;;4.00;;
31531;SDS011;23787;52.180;5.288;2022-12-04T17:55:08;4.40;;;4.00;;
31531;SDS011;23787;52.180;5.288;2022-12-04T18:00:08;4.40;;;4.00;;
31531;SDS011;23787;52.180;5.288;2022-12-04T18:05:08;4.20;;;3.90;;
31531;SDS011;23787;52.180;5.288;2022-12-04T18:10:08;4.20;;;3.90;;
31531;SDS011;23787;52.180;5.288;2022-12-04T18:25:08;3.90;;;3.60;;
31531;SDS011;23787;52.180;5.288;2022-12-04T18:35:08;4.20;;;3.80;;
31531;SDS011;23787;52.180;5.288;2022-12-04T18:40:08;4.20;;;3.80;;
31531;SDS011;23787;52.180;5.288;2022-12-04T18:50:08;3.70;;;3.40;;
31531;SDS011;23787;52.180;5.288;2022-12-04T19:05:08;5.30;;;4.80;;
31531;SDS011;23787;52.180;5.288;2022-12-04T19:10:08;5.30;;;4.80;;
31531;SDS011;23787;52.180;5.288;2022-12-04T19:15:09;5.30;;;4.80;;
31531;SDS011;23787;52.180;5.288;2022-12-04T19:20:09;5.20;;;4.40;;
31531;SDS011;23787;52.180;5.288;2022-12-04T19:25:08;5.20;;;4.40;;
31531;SDS011;23787;52.180;5.288;2022-12-04T19:30:08;5.20;;;4.40;;
31531;SDS011;23787;52.180;5.288;2022-12-04T19:35:08;4.70;;;4.30;;
31531;SDS011;23787;52.180;5.288;2022-12-04T19:40:09;4.70;;;4.30;;
31531;SDS011;23787;52.180;5.288;2022-12-04T19:45:08;4.70;;;4.30;;
31531;SDS011;23787;52.180;5.288;2022-12-04T19:50:09;4.60;;;4.20;;
31531;SDS011;23787;52.180;5.288;2022-12-04T19:55:08;4.60;;;4.20;;
31531;SDS011;23787;52.180;5.288;2022-12-04T20:00:09;4.60;;;4.20;;
31531;SDS011;23787;52.180;5.288;2022-12-04T20:05:08;4.50;;;4.10;;
31531;SDS011;23787;52.180;5.288;2022-12-04T20:10:08;4.50;;;4.10;;
31531;SDS011;23787;52.180;5.288;2022-12-04T20:15:08;4.50;;;4.10;;
31531;SDS011;23787;52.180;5.288;2022-12-04T20:20:08;4.70;;;4.30;;
31531;SDS011;23787;52.180;5.288;2022-12-04T20:25:08;4.70;;;4.30;;
31531;SDS011;23787;52.180;5.288;2022-12-04T20:50:08;5.20;;;4.70;;
31531;SDS011;23787;52.180;5.288;2022-12-04T21:05:08;4.30;;;3.90;;
31531;SDS011;23787;52.180;5.288;2022-12-04T21:10:09;4.30;;;3.90;;
31531;SDS011;23787;52.180;5.288;2022-12-04T21:15:08;4.30;;;3.90;;
31531;SDS011;23787;52.180;5.288;2022-12-04T21:25:08;4.00;;;3.70;;
31531;SDS011;23787;52.180;5.288;2022-12-04T21:35:08;5.10;;;4.60;;
31531;SDS011;23787;52.180;5.288;2022-12-04T21:40:09;5.10;;;4.60;;
31531;SDS011;23787;52.180;5.288;2022-12-04T21:50:08;4.50;;;4.10;;
31531;SDS011;23787;52.180;5.288;2022-12-04T21:55:08;4.50;;;4.10;;
31531;SDS011;23787;52.180;5.288;2022-12-04T22:00:09;4.50;;;4.10;;
31531;SDS011;23787;52.180;5.288;2022-12-04T22:05:08;5.00;;;4.60;;
31531;SDS011;23787;52.180;5.288;2022-12-04T22:15:09;5.00;;;4.60;;
31531;SDS011;23787;52.180;5.288;2022-12-04T22:20:09;4.20;;;3.90;;
31531;SDS011;23787;52.180;5.288;2022-12-04T22:25:08;4.20;;;3.90;;
31531;SDS011;23787;52.180;5.288;2022-12-04T22:35:08;4.40;;;4.00;;
31531;SDS011;23787;52.180;5.288;2022-12-04T22:45:09;4.40;;;4.00;;
31531;SDS011;23787;52.180;5.288;2022-12-04T23:00:09;7.10;;;4.50;;
31531;SDS011;23787;52.180;5.288;2022-12-04T23:10:08;4.70;;;4.00;;
31531;SDS011;23787;52.180;5.288;2022-12-04T23:20:09;4.60;;;4.20;;
31531;SDS011;23787;52.180;5.288;2022-12-04T23:25:08;4.60;;;4.20;;
31531;SDS011;23787;52.180;5.288;2022-12-04T23:30:08;4.60;;;4.20;;
31531;SDS011;23787;52.180;5.288;2022-12-04T23:35:08;6.40;;;5.80;;
31531;SDS011;23787;52.180;5.288;2022-12-04T23:45:08;6.40;;;5.80;;
